createdAt,value
2018-02-19T00:00:14.778Z,64.57
2018-02-19T00:02:41.586Z,64.43
2018-02-19T00:05:08.342Z,67.30
2018-02-19T00:07:35.130Z,67.17
2018-02-19T00:10:01.921Z,80.00
2018-02-19T00:12:28.704Z,64.10
2018-02-19T00:14:55.505Z,58.37
2018-02-19T00:17:22.469Z,57.73
2018-02-19T00:19:49.324Z,56.87
2018-02-19T00:22:16.075Z,60.07
2018-02-19T00:24:42.829Z,63.13
2018-02-19T00:27:09.654Z,56.77
2018-02-19T00:29:36.418Z,54.40
2018-02-19T00:32:03.208Z,59.13
2018-02-19T00:34:30.011Z,66.57
2018-02-19T00:36:56.793Z,62.30
2018-02-19T00:39:23.550Z,62.90
2018-02-19T00:41:50.501Z,55.03
2018-02-19T00:44:17.279Z,58.53
2018-02-19T00:46:44.038Z,54.93
2018-02-19T00:49:10.799Z,62.17
2018-02-19T00:51:37.575Z,67.27
2018-02-19T00:54:04.362Z,59.27
2018-02-19T00:56:31.117Z,72.27
2018-02-19T00:58:57.898Z,66.60
2018-02-19T01:01:24.670Z,63.30
2018-02-19T01:03:51.430Z,61.17
2018-02-19T01:06:18.185Z,45.33
2018-02-19T01:08:44.941Z,55.80
2018-02-19T01:11:11.692Z,54.23
2018-02-19T01:13:38.478Z,63.07
2018-02-19T01:16:05.256Z,58.03
2018-02-19T01:18:32.015Z,60.93
2018-02-19T01:20:58.824Z,63.20
2018-02-19T01:23:25.654Z,63.33
2018-02-19T01:25:52.400Z,60.10
2018-02-19T01:28:19.334Z,65.93
2018-02-19T01:30:46.094Z,59.20
2018-02-19T01:33:12.834Z,63.13
2018-02-19T01:35:39.584Z,61.27
2018-02-19T01:38:06.578Z,60.03
2018-02-19T01:40:33.333Z,59.67
2018-02-19T01:43:00.110Z,60.10
2018-02-19T01:45:27.753Z,63.90
2018-02-19T01:47:54.511Z,64.37
2018-02-19T01:50:21.500Z,63.27
2018-02-19T01:52:48.352Z,59.00
2018-02-19T01:55:15.143Z,61.03
2018-02-19T01:57:41.918Z,60.57
2018-02-19T02:00:08.850Z,60.00
2018-02-19T02:02:35.733Z,72.27
2018-02-19T02:05:02.478Z,67.50
2018-02-19T02:07:29.223Z,53.97
2018-02-19T02:09:56.006Z,60.53
2018-02-19T02:12:22.766Z,57.57
2018-02-19T02:14:49.738Z,57.40
2018-02-19T02:17:16.523Z,59.23
2018-02-19T02:19:43.262Z,55.77
2018-02-19T02:22:10.019Z,62.93
2018-02-19T02:24:36.795Z,54.30
2018-02-19T02:27:03.541Z,56.13
2018-02-19T02:29:30.294Z,54.67
2018-02-19T02:31:57.071Z,50.47
2018-02-19T02:34:23.950Z,54.27
2018-02-19T02:36:50.706Z,58.87
2018-02-19T02:39:17.458Z,47.77
2018-02-19T02:41:44.377Z,60.60
2018-02-19T02:44:11.101Z,54.57
2018-02-19T02:46:38.824Z,58.17
2018-02-19T02:49:05.603Z,58.33
2018-02-19T02:51:32.379Z,50.67
2018-02-19T02:53:59.158Z,56.43
2018-02-19T02:56:25.923Z,50.43
2018-02-19T02:58:52.679Z,59.17
2018-02-19T03:01:19.672Z,59.30
2018-02-19T03:03:46.586Z,51.10
2018-02-19T03:06:13.332Z,55.77
2018-02-19T03:08:40.109Z,62.43
2018-02-19T03:11:06.876Z,61.80
2018-02-19T03:13:33.678Z,58.43
2018-02-19T03:16:00.464Z,73.87
2018-02-19T03:18:27.210Z,57.07
2018-02-19T03:20:53.970Z,67.20
2018-02-19T03:23:20.746Z,59.57
2018-02-19T03:25:47.624Z,69.70
2018-02-19T03:28:14.407Z,55.83
2018-02-19T03:30:41.149Z,60.83
2018-02-19T03:33:07.895Z,58.80
2018-02-19T03:35:34.654Z,54.37
2018-02-19T03:38:01.438Z,59.30
2018-02-19T03:40:28.230Z,54.13
2018-02-19T03:42:55.033Z,56.53
2018-02-19T03:45:21.782Z,51.93
2018-02-19T03:47:48.525Z,55.87
2018-02-19T03:50:15.290Z,54.90
2018-02-19T03:52:42.053Z,49.30
2018-02-19T03:55:08.831Z,49.57
2018-02-19T03:57:35.584Z,53.30
2018-02-19T04:00:02.351Z,54.63
2018-02-19T04:02:29.142Z,59.27
2018-02-19T04:04:55.910Z,52.47
2018-02-19T04:07:22.672Z,52.67
2018-02-19T04:09:49.549Z,59.30
2018-02-19T04:12:16.308Z,62.77
2018-02-19T04:14:43.127Z,63.70
2018-02-19T04:17:09.918Z,59.80
2018-02-19T04:19:36.945Z,55.73
2018-02-19T04:22:03.714Z,56.50
2018-02-19T04:24:30.634Z,61.27
2018-02-19T04:26:57.414Z,57.17
2018-02-19T04:29:24.165Z,68.93
2018-02-19T04:31:51.028Z,58.70
2018-02-19T04:34:17.795Z,63.57
2018-02-19T04:36:44.577Z,71.60
2018-02-19T04:39:11.362Z,70.13
2018-02-19T04:41:38.351Z,59.60
2018-02-19T04:44:05.139Z,68.33
2018-02-19T04:46:44.626Z,74.60
2018-02-19T04:49:11.400Z,69.90
2018-02-19T04:51:38.154Z,62.90
2018-02-19T04:54:04.941Z,72.80
2018-02-19T04:56:31.685Z,66.67
2018-02-19T04:58:58.450Z,68.60
2018-02-19T05:01:25.281Z,65.33
2018-02-19T05:03:52.062Z,72.17
2018-02-19T05:06:18.846Z,69.40
2018-02-19T05:08:45.609Z,76.77
2018-02-19T05:11:12.351Z,76.20
2018-02-19T05:13:39.182Z,91.20
2018-02-19T05:16:05.974Z,188.23
2018-02-19T05:18:32.754Z,186.37
2018-02-19T05:20:59.511Z,236.10
2018-02-19T05:23:26.269Z,78.23
2018-02-19T05:25:53.019Z,76.77
2018-02-19T05:28:19.784Z,266.30
2018-02-19T05:30:46.531Z,127.97
2018-02-19T05:33:13.294Z,94.70
2018-02-19T05:35:40.056Z,86.53
2018-02-19T05:38:06.862Z,77.63
2018-02-19T05:40:33.639Z,82.10
2018-02-19T05:43:00.420Z,75.83
2018-02-19T05:45:27.164Z,72.43
2018-02-19T05:47:53.953Z,79.43
2018-02-19T05:50:20.738Z,67.70
2018-02-19T05:52:47.587Z,68.90
2018-02-19T05:55:14.334Z,61.20
2018-02-19T05:57:41.102Z,71.17
2018-02-19T06:00:07.878Z,78.20
2018-02-19T06:02:34.686Z,87.53
2018-02-19T06:05:01.459Z,80.87
2018-02-19T06:07:28.282Z,77.23
2018-02-19T06:09:55.031Z,85.90
2018-02-19T06:12:21.790Z,68.23
2018-02-19T06:14:48.620Z,91.37
2018-02-19T06:17:15.382Z,70.40
2018-02-19T06:19:42.143Z,67.00
2018-02-19T06:22:08.934Z,66.07
2018-02-19T06:24:35.737Z,64.63
2018-02-19T06:27:02.482Z,60.27
2018-02-19T06:29:29.271Z,61.03
2018-02-19T06:31:56.050Z,60.97
2018-02-19T06:34:22.884Z,64.13
2018-02-19T06:36:49.663Z,75.13
2018-02-19T06:39:16.450Z,70.10
2018-02-19T06:41:43.211Z,77.80
2018-02-19T06:44:09.958Z,71.43
2018-02-19T06:46:36.728Z,67.13
2018-02-19T06:49:03.626Z,65.20
2018-02-19T06:51:30.414Z,59.97
2018-02-19T06:53:57.224Z,67.03
2018-02-19T06:56:23.979Z,64.27
2018-02-19T06:58:50.864Z,70.07
2018-02-19T07:01:17.676Z,56.33
2018-02-19T07:03:44.477Z,65.73
2018-02-19T07:06:11.266Z,63.97
2018-02-19T07:08:38.040Z,61.73
2018-02-19T07:11:04.830Z,58.00
2018-02-19T07:13:31.617Z,57.80
2018-02-19T07:15:58.725Z,59.53
2018-02-19T07:18:25.535Z,48.67
2018-02-19T07:20:52.326Z,63.23
2018-02-19T07:23:19.130Z,54.13
2018-02-19T07:25:45.894Z,40.23
2018-02-19T07:28:12.686Z,39.30
2018-02-19T07:30:39.476Z,39.93
2018-02-19T07:33:06.339Z,38.60
2018-02-19T07:35:33.180Z,35.50
2018-02-19T07:38:00.126Z,39.53
2018-02-19T07:40:27.069Z,38.40
2018-02-19T07:42:53.948Z,39.03
2018-02-19T07:45:20.695Z,42.23
2018-02-19T07:47:47.459Z,39.23
2018-02-19T07:50:14.234Z,41.83
2018-02-19T07:52:41.019Z,36.30
2018-02-19T07:55:07.776Z,34.30
2018-02-19T07:57:34.557Z,39.10
2018-02-19T08:00:01.510Z,33.27
2018-02-19T08:02:28.282Z,41.23
2018-02-19T08:04:55.082Z,37.13
2018-02-19T08:07:21.938Z,35.73
2018-02-19T08:09:48.722Z,42.63
2018-02-19T08:12:15.475Z,37.70
2018-02-19T08:14:42.243Z,44.83
2018-02-19T08:17:09.079Z,33.90
2018-02-19T08:19:35.823Z,42.10
2018-02-19T08:22:02.582Z,47.00
2018-02-19T08:24:29.339Z,45.90
2018-02-19T08:26:56.135Z,41.80
2018-02-19T08:29:22.892Z,41.13
2018-02-19T08:31:49.644Z,41.27
2018-02-19T08:34:16.856Z,42.07
2018-02-19T08:36:43.640Z,42.10
2018-02-19T08:39:10.506Z,39.03
2018-02-19T08:41:37.298Z,42.93
2018-02-19T08:44:04.124Z,45.43
2018-02-19T08:46:31.013Z,44.13
2018-02-19T08:48:57.863Z,52.63
2018-02-19T08:51:24.716Z,50.40
2018-02-19T08:53:51.494Z,45.47
2018-02-19T08:56:18.435Z,45.10
2018-02-19T08:58:45.205Z,37.93
2018-02-19T09:01:12.010Z,37.30
2018-02-19T09:03:38.792Z,35.47
2018-02-19T09:06:05.602Z,34.53
2018-02-19T09:08:32.407Z,33.40
2018-02-19T09:10:59.158Z,37.77
2018-02-19T09:13:26.249Z,32.17
2018-02-19T09:15:53.032Z,33.23
2018-02-19T09:18:19.799Z,34.63
2018-02-19T09:20:47.474Z,32.20
2018-02-19T09:23:14.259Z,35.07
2018-02-19T09:25:41.094Z,34.00
2018-02-19T09:28:07.871Z,30.87
2018-02-19T09:30:34.671Z,29.90
2018-02-19T09:33:01.436Z,32.87
2018-02-19T09:35:28.250Z,31.73
2018-02-19T09:37:55.159Z,29.67
2018-02-19T09:40:21.922Z,30.80
2018-02-19T09:42:48.682Z,28.07
2018-02-19T09:45:15.571Z,30.63
2018-02-19T09:47:42.330Z,30.23
2018-02-19T09:50:09.129Z,28.90
2018-02-19T09:52:35.922Z,30.50
2018-02-19T09:55:02.708Z,34.87
2018-02-19T09:57:29.482Z,33.37
2018-02-19T09:59:56.282Z,28.77
2018-02-19T10:02:23.205Z,26.33
2018-02-19T10:04:49.972Z,28.57
2018-02-19T10:07:16.742Z,31.00
2018-02-19T10:09:43.572Z,29.60
2018-02-19T10:12:10.372Z,24.03
2018-02-19T10:14:37.895Z,25.80
2018-02-19T10:17:04.702Z,25.73
2018-02-19T10:19:31.490Z,23.23
2018-02-19T10:21:59.182Z,29.73
2018-02-19T10:24:26.262Z,25.27
2018-02-19T10:26:53.056Z,29.67
2018-02-19T10:29:20.597Z,26.43
2018-02-19T10:31:55.637Z,26.60
2018-02-19T10:34:34.391Z,25.93
2018-02-19T10:37:02.308Z,27.07
2018-02-19T10:39:39.175Z,29.97
2018-02-19T10:42:08.621Z,36.13
2018-02-19T10:44:35.525Z,34.07
2018-02-19T10:47:03.323Z,34.73
2018-02-19T10:49:30.999Z,37.50
2018-02-19T10:51:57.774Z,35.17
2018-02-19T10:57:32.723Z,36.80
2018-02-19T11:00:00.522Z,46.73
2018-02-19T11:02:28.227Z,43.10
2018-02-19T11:04:55.448Z,34.17
2018-02-19T11:07:22.290Z,34.43
2018-02-19T11:09:59.129Z,39.13
2018-02-19T11:12:27.136Z,33.67
2018-02-19T11:14:57.744Z,37.73
2018-02-19T11:17:24.521Z,38.70
2018-02-19T11:19:52.384Z,36.23
2018-02-19T11:22:20.051Z,33.60
2018-02-19T11:27:25.432Z,32.83
2018-02-19T11:29:52.245Z,33.43
2018-02-19T11:32:19.150Z,28.90
2018-02-19T11:34:45.896Z,28.93
2018-02-19T11:37:12.658Z,29.10
2018-02-19T11:39:39.416Z,31.33
2018-02-19T11:42:06.180Z,33.60
2018-02-19T11:44:33.676Z,30.30
2018-02-19T11:47:00.422Z,31.57
2018-02-19T11:49:27.270Z,33.50
2018-02-19T11:51:54.010Z,36.73
2018-02-19T11:54:20.751Z,35.00
2018-02-19T11:56:47.537Z,32.57
2018-02-19T11:59:14.334Z,37.87
2018-02-19T12:01:41.248Z,36.53
2018-02-19T12:04:08.680Z,36.13
2018-02-19T12:06:35.554Z,36.53
2018-02-19T12:09:02.345Z,36.67
2018-02-19T12:11:29.130Z,41.77
2018-02-19T12:13:56.371Z,39.27
2018-02-19T12:16:23.198Z,41.73
2018-02-19T12:18:49.950Z,39.47
2018-02-19T12:21:16.706Z,39.93
2018-02-19T12:23:43.495Z,41.83
2018-02-19T12:26:10.234Z,48.20
2018-02-19T12:28:37.047Z,36.40
2018-02-19T12:31:03.799Z,51.23
2018-02-19T12:33:30.571Z,41.00
2018-02-19T12:35:57.335Z,39.47
2018-02-19T12:38:24.125Z,37.97
2018-02-19T12:40:50.942Z,39.20
2018-02-19T12:43:17.691Z,40.63
2018-02-19T12:45:44.450Z,43.70
2018-02-19T12:48:11.202Z,41.73
2018-02-19T12:50:38.320Z,42.47
2018-02-19T12:53:05.159Z,41.93
2018-02-19T12:55:31.922Z,39.57
2018-02-19T12:57:58.700Z,46.70
2018-02-19T13:00:25.653Z,37.23
2018-02-19T13:02:52.748Z,44.87
2018-02-19T13:05:20.376Z,45.80
2018-02-19T13:07:47.277Z,51.30
2018-02-19T13:10:14.096Z,44.20
2018-02-19T13:12:42.915Z,46.90
2018-02-19T13:15:12.967Z,46.77
2018-02-19T13:17:42.645Z,45.73
2018-02-19T13:20:09.439Z,43.10
2018-02-19T13:22:36.229Z,48.73
2018-02-19T13:25:02.995Z,45.07
2018-02-19T13:27:29.756Z,48.40
2018-02-19T13:29:56.535Z,45.23
2018-02-19T13:32:23.339Z,39.93
2018-02-19T13:34:50.383Z,37.20
2018-02-19T13:37:17.413Z,38.53
2018-02-19T13:39:43.987Z,39.23
2018-02-19T13:42:10.992Z,44.97
2018-02-19T13:44:37.790Z,36.00
2018-02-19T13:47:04.661Z,36.33
2018-02-19T13:49:31.426Z,38.53
2018-02-19T13:51:58.201Z,40.27
2018-02-19T13:54:25.047Z,39.90
2018-02-19T13:56:51.889Z,36.50
2018-02-19T13:59:18.674Z,36.60
2018-02-19T14:01:45.459Z,39.73
2018-02-19T14:04:12.226Z,47.40
2018-02-19T14:06:39.027Z,42.03
2018-02-19T14:09:05.806Z,40.83
2018-02-19T14:11:32.723Z,39.10
2018-02-19T14:13:59.553Z,46.23
2018-02-19T14:16:26.337Z,46.27
2018-02-19T14:18:53.106Z,40.37
2018-02-19T14:21:19.896Z,40.23
2018-02-19T14:23:46.853Z,42.73
2018-02-19T14:26:13.583Z,40.47
2018-02-19T14:28:40.375Z,38.80
2018-02-19T14:31:08.227Z,42.20
2018-02-19T14:33:35.034Z,40.00
2018-02-19T14:36:02.549Z,38.37
2018-02-19T14:38:29.327Z,46.47
2018-02-19T14:40:56.079Z,44.37
2018-02-19T14:43:22.837Z,41.77
2018-02-19T14:45:49.616Z,38.70
2018-02-19T14:48:16.447Z,45.77
2018-02-19T14:50:43.357Z,45.93
2018-02-19T14:53:10.121Z,45.00
2018-02-19T14:55:36.870Z,35.07
2018-02-19T14:58:03.676Z,73.10
2018-02-19T15:00:30.453Z,59.00
2018-02-19T15:02:57.202Z,49.97
2018-02-19T15:05:24.072Z,60.57
2018-02-19T15:07:50.850Z,49.27
2018-02-19T15:10:18.363Z,57.43
2018-02-19T15:12:45.174Z,117.50
2018-02-19T15:15:11.926Z,89.20
2018-02-19T15:17:38.681Z,50.77
2018-02-19T15:20:05.468Z,42.53
2018-02-19T15:22:32.262Z,38.67
2018-02-19T15:24:59.104Z,49.40
2018-02-19T15:27:25.862Z,42.30
2018-02-19T15:29:52.737Z,87.13
2018-02-19T15:32:19.482Z,52.67
2018-02-19T15:34:46.298Z,40.40
2018-02-19T15:37:13.182Z,50.93
2018-02-19T15:39:39.931Z,49.77
2018-02-19T15:42:06.732Z,53.70
2018-02-19T15:44:33.515Z,46.00
2018-02-19T15:47:00.279Z,47.80
2018-02-19T15:49:27.100Z,35.77
2018-02-19T15:51:53.866Z,43.47
2018-02-19T15:54:20.677Z,50.33
2018-02-19T15:56:47.551Z,41.33
2018-02-19T15:59:14.577Z,46.33
2018-02-19T16:01:41.383Z,47.03
2018-02-19T16:04:08.504Z,42.17
2018-02-19T16:06:35.302Z,42.50
2018-02-19T16:09:02.047Z,51.33
2018-02-19T16:11:28.920Z,52.07
2018-02-19T16:13:55.702Z,51.53
2018-02-19T16:16:23.237Z,48.63
2018-02-19T16:18:50.070Z,52.27
2018-02-19T16:21:16.823Z,57.37
2018-02-19T16:23:43.999Z,67.83
2018-02-19T16:26:10.777Z,59.20
2018-02-19T16:28:37.575Z,49.90
2018-02-19T16:31:04.371Z,54.43
2018-02-19T16:33:31.122Z,49.00
2018-02-19T16:35:57.898Z,52.67
2018-02-19T16:38:24.654Z,44.00
2018-02-19T16:40:51.636Z,49.87
2018-02-19T16:43:18.410Z,53.03
2018-02-19T16:45:46.017Z,62.30
2018-02-19T16:48:12.803Z,60.80
2018-02-19T16:50:39.611Z,65.87
2018-02-19T16:53:06.501Z,69.50
2018-02-19T16:55:33.295Z,59.03
2018-02-19T16:58:00.084Z,74.67
2018-02-19T17:00:26.838Z,67.00
2018-02-19T17:02:53.634Z,65.67
2018-02-19T17:05:20.426Z,57.20
2018-02-19T17:07:47.217Z,64.67
2018-02-19T17:10:14.034Z,63.87
2018-02-19T17:12:40.798Z,75.60
2018-02-19T17:15:08.820Z,70.03
2018-02-19T17:17:35.588Z,67.93
2018-02-19T17:20:02.782Z,70.63
2018-02-19T17:22:29.584Z,77.00
2018-02-19T17:24:56.531Z,79.90
2018-02-19T17:27:24.066Z,75.50
2018-02-19T17:29:50.850Z,86.43
2018-02-19T17:32:17.700Z,82.17
2018-02-19T17:34:44.690Z,93.67
2018-02-19T17:37:15.054Z,92.27
2018-02-19T17:39:49.983Z,99.13
2018-02-19T17:42:16.788Z,109.43
2018-02-19T17:44:43.594Z,170.70
2018-02-19T17:47:10.507Z,138.80
2018-02-19T17:49:38.046Z,137.20
2018-02-19T17:52:04.885Z,278.90
2018-02-19T17:54:31.663Z,300.00
2018-02-19T17:56:58.527Z,281.03
2018-02-19T17:59:25.594Z,388.63
2018-02-19T18:01:52.408Z,245.17
2018-02-19T18:04:19.176Z,278.87
2018-02-19T18:06:46.688Z,229.80
2018-02-19T18:09:13.632Z,139.40
2018-02-19T18:11:40.435Z,139.07
2018-02-19T18:14:07.450Z,134.90
2018-02-19T18:16:34.250Z,125.80
2018-02-19T18:19:01.132Z,126.03
2018-02-19T18:21:28.037Z,128.90
2018-02-19T18:23:56.210Z,129.33
2018-02-19T18:26:23.343Z,138.50
2018-02-19T18:28:50.135Z,163.47
2018-02-19T18:31:16.909Z,154.90
2018-02-19T18:33:43.695Z,148.57
2018-02-19T18:36:10.497Z,155.33
2018-02-19T18:38:37.274Z,145.00
2018-02-19T18:41:04.082Z,170.03
2018-02-19T18:43:30.931Z,171.30
2018-02-19T18:45:57.681Z,151.40
2018-02-19T18:48:24.489Z,143.03
2018-02-19T18:50:51.263Z,138.27
2018-02-19T18:53:18.332Z,127.37
2018-02-19T18:55:45.211Z,115.27
2018-02-19T18:58:12.104Z,124.60
2018-02-19T19:00:38.859Z,123.43
2018-02-19T19:03:05.982Z,136.63
2018-02-19T19:05:32.890Z,144.80
2018-02-19T19:08:06.298Z,143.23
2018-02-19T19:10:40.461Z,137.80
2018-02-19T19:13:07.310Z,137.80
2018-02-19T19:15:34.804Z,122.23
2018-02-19T19:18:01.856Z,119.43
2018-02-19T19:20:29.716Z,139.97
2018-02-19T19:22:56.511Z,135.93
2018-02-19T19:25:23.322Z,137.33
2018-02-19T19:27:50.170Z,149.50
2018-02-19T19:30:16.953Z,190.03
2018-02-19T19:32:43.871Z,135.00
2018-02-19T19:35:10.835Z,142.87
2018-02-19T19:37:37.625Z,125.77
2018-02-19T19:40:04.458Z,128.50
2018-02-19T19:42:31.307Z,117.00
2018-02-19T19:44:58.224Z,120.33
2018-02-19T19:47:26.383Z,104.50
2018-02-19T19:49:53.187Z,91.00
2018-02-19T19:52:20.684Z,99.13
2018-02-19T19:54:47.808Z,103.77
2018-02-19T19:57:18.156Z,121.03
2018-02-19T19:59:44.972Z,148.30
2018-02-19T20:02:11.784Z,346.00
2018-02-19T20:04:39.538Z,98.67
2018-02-19T20:07:06.462Z,93.60
2018-02-19T20:09:33.695Z,118.87
2018-02-19T20:12:01.247Z,99.43
2018-02-19T20:27:28.564Z,118.03
2018-02-19T20:29:55.508Z,126.20
2018-02-19T20:32:22.326Z,97.23
2018-02-19T20:34:49.418Z,83.00
2018-02-19T20:37:16.269Z,90.07
2018-02-19T20:39:43.056Z,72.20
2018-02-19T20:42:09.930Z,80.00
2018-02-19T20:44:37.083Z,81.87
2018-02-19T20:47:04.843Z,88.63
2018-02-19T20:49:31.658Z,98.70
2018-02-19T20:51:58.430Z,118.27
2018-02-19T20:54:25.222Z,107.07
2018-02-19T20:56:52.027Z,94.63
2018-02-19T20:59:18.791Z,100.27
2018-02-19T21:01:45.563Z,87.77
2018-02-19T21:04:13.080Z,102.53
2018-02-19T21:06:39.870Z,97.57
2018-02-19T21:09:06.850Z,97.83
2018-02-19T21:11:33.642Z,109.53
2018-02-19T21:14:00.431Z,107.73
2018-02-19T21:16:27.521Z,93.63
2018-02-19T21:18:54.290Z,102.77
2018-02-19T21:21:21.082Z,94.67
2018-02-19T21:23:48.654Z,111.33
2018-02-19T21:26:16.030Z,108.27
2018-02-19T21:28:43.730Z,87.87
2018-02-19T21:31:19.308Z,97.90
2018-02-19T21:33:46.202Z,101.43
2018-02-19T21:36:13.191Z,84.97
2018-02-19T21:38:44.208Z,94.90
2018-02-19T21:41:12.613Z,99.47
2018-02-19T21:43:40.047Z,88.43
2018-02-19T21:46:06.926Z,87.67
2018-02-19T21:48:33.730Z,100.93
2018-02-19T21:51:08.688Z,122.00
2018-02-19T21:53:39.210Z,108.30
2018-02-19T21:56:06.343Z,95.80
2018-02-19T21:58:33.100Z,88.47
2018-02-19T22:00:59.958Z,104.53
2018-02-19T22:03:26.819Z,95.70
2018-02-19T22:05:54.380Z,96.17
2018-02-19T22:08:21.447Z,97.17
2018-02-19T22:10:49.224Z,99.90
2018-02-19T22:13:16.021Z,115.97
2018-02-19T22:15:43.013Z,124.87
2018-02-19T22:18:09.798Z,144.93
2018-02-19T22:20:36.736Z,119.67
2018-02-19T22:23:09.584Z,125.87
2018-02-19T22:25:36.375Z,112.40
2018-02-19T22:28:03.291Z,135.10
2018-02-19T22:30:30.071Z,114.60
2018-02-19T22:32:56.858Z,115.43
2018-02-19T22:35:24.204Z,85.53
2018-02-19T22:37:50.958Z,93.87
2018-02-19T22:40:17.709Z,77.77
2018-02-19T22:42:45.245Z,102.17
2018-02-19T22:45:13.236Z,98.53
2018-02-19T22:47:40.029Z,83.13
2018-02-19T22:50:06.807Z,74.83
2018-02-19T22:52:33.556Z,80.67
2018-02-19T22:55:00.294Z,71.33
2018-02-19T22:57:27.094Z,90.67
2018-02-19T22:59:53.840Z,90.13
2018-02-19T23:02:20.778Z,87.63
2018-02-19T23:04:47.687Z,90.30
2018-02-19T23:07:14.462Z,93.30
2018-02-19T23:09:41.234Z,97.80
2018-02-19T23:12:08.162Z,88.37
2018-02-19T23:14:35.085Z,93.07
2018-02-19T23:17:01.859Z,98.07
2018-02-19T23:19:28.660Z,90.50
2018-02-19T23:21:56.627Z,101.17
2018-02-19T23:24:23.371Z,94.10
2018-02-19T23:27:00.521Z,91.17
2018-02-19T23:29:27.742Z,92.43
2018-02-19T23:31:54.503Z,92.87
2018-02-19T23:34:21.280Z,94.90
2018-02-19T23:36:48.055Z,74.00
2018-02-19T23:39:14.804Z,81.07
2018-02-19T23:41:41.586Z,68.63
2018-02-19T23:44:08.315Z,71.23
2018-02-19T23:46:35.296Z,60.60
2018-02-19T23:49:02.064Z,61.13
2018-02-19T23:51:29.036Z,70.63
2018-02-19T23:53:55.794Z,63.80
2018-02-19T23:56:23.101Z,69.63
2018-02-19T23:58:49.888Z,63.27
